Terminal Aerodrome Forecast
Issued by NWS Shreveport, LA

Home | Current Version | Previous Version | Text Only | Print | Product List | Glossary On
Versions: 1 2 3 4 5 6 7 8 9 10 11 12 13 14 15 16
000
FTUS44 KSHV 260500
TAFTYR
TAF
KTYR 260520Z 2606/2706 19007KT P6SM SCT150 BKN250
     FM261500 24014G20KT P6SM SKC
     FM261800 29012KT P6SM SKC
     FM262300 32008KT P6SM SKC=

USA.gov is the U.S. government's official web portal to all federal, state and local government web resources and services.